Bonaire, GA (31005)

8:25 PM EDT on July 27, 2016 (GMT -0400)
Springfield ln | | Change Station

Elev 397 ft 32.57 °N, 83.67 °W | Updated 15 seconds ago

Clear
Clear
89.8 °F
Feels Like 94 °F
N
3.6
Wind Variable Wind from SW
Gusts 4.9 mph

Today
High -- | Low -- °F
--% Chance of Precip.
Yesterday
High -- | Low -- °F
Precip. -- in
Pressure 29.99 in
Visibility 10.0 miles
Clouds Clear
Heat Index 94 °F
Dew Point 69 °F
Humidity 50%
Rainfall 0.00 in
Snow Depth Not available.
6:45 AM 8:35 PM
Last Quarter, 38% visible
METAR KWRB 272358Z AUTO 25008KT 10SM CLR 33/21 A2999 RMK AO2 SLP155 T03320207 10353 20326 55001
Pressure 29.99 in
Visibility 10.0 miles
Clouds Clear
Heat Index 94 °F
Dew Point 69 °F
Humidity 50%
Rainfall 0.00 in
Snow Depth Not available.
6:45 AM 8:35 PM
Last Quarter, 38% visible
METAR KWRB 272358Z AUTO 25008KT 10SM CLR 33/21 A2999 RMK AO2 SLP155 T03320207 10353 20326 55001

10-Day Weather Forecast

Almanac

Astronomy

Jul. 27, 2016 Rise Set
Actual Time
Civil Twilight
Nautical Twilight
Astronomical Twilight
Moon
Length of Visible Light
Length of Day
Tomorrow will be .
, % of the Moon is Illuminated

Today's Extremes

State Highs State Lows

Community

WunderPhotos

Upload Photos

1,927,975 photos uploaded!

WunderBlog® & News

Nearby

Air Quality

  Air Quality AQ Index Pollutant
Not available.

Snow Depth

Station Depth Elevation

Earthquake Activity

City Distance Mag. Time & Date
Minimum magnitude displayed is 2.5.

Coastal Water Temperatures

Place Temperature

Stations

Nearby Weather Stations

Station Location Temp. Windchill Dew Point Humidity Wind Precip. Elev Updated Type
                   

Watches & Warnings

There are currently no watches in effect.